createdAt,value
2022-09-17T00:04:07.598Z,100124.53
2022-09-17T00:09:09.590Z,100121.94
2022-09-17T00:14:17.698Z,100127.47
2022-09-17T00:19:22.165Z,100122.69
2022-09-17T00:24:23.689Z,100117.81
2022-09-17T00:29:25.099Z,100135.66
2022-09-17T00:34:26.738Z,100128.94
2022-09-17T00:39:28.271Z,100127.81
2022-09-17T00:45:06.407Z,100124.88
2022-09-17T00:50:13.748Z,100130.94
2022-09-17T00:55:17.830Z,100123.00
2022-09-17T01:00:19.558Z,100137.31
2022-09-17T01:05:44.618Z,100136.91
2022-09-17T01:11:15.170Z,100145.06
2022-09-17T01:16:52.231Z,100144.78
2022-09-17T01:22:13.966Z,100135.81
2022-09-17T01:27:22.634Z,100136.25
2022-09-17T01:32:35.491Z,100137.50
2022-09-17T01:38:00.093Z,100132.00
2022-09-17T01:43:11.863Z,100141.31
2022-09-17T01:48:17.544Z,100144.94
2022-09-17T01:53:25.719Z,100144.13
2022-09-17T01:58:32.775Z,100146.25
2022-09-17T02:03:48.336Z,100145.69
2022-09-17T02:09:05.939Z,100147.03
2022-09-17T02:14:13.750Z,100147.72
2022-09-17T02:19:23.319Z,100145.97
2022-09-17T02:24:38.940Z,100140.00
2022-09-17T02:29:44.711Z,100144.38
2022-09-17T02:34:46.490Z,100145.28
2022-09-17T02:39:48.156Z,100141.25
2022-09-17T02:45:30.012Z,100149.13
2022-09-17T02:50:52.900Z,100141.13
2022-09-17T02:56:13.440Z,100144.84
2022-09-17T03:01:25.541Z,100147.69
2022-09-17T03:06:27.336Z,100147.97
2022-09-17T03:11:28.741Z,100143.91
2022-09-17T03:16:30.441Z,100153.56
2022-09-17T03:21:31.941Z,100143.41
2022-09-17T03:26:33.344Z,100144.16
2022-09-17T03:31:34.938Z,100143.00
2022-09-17T03:36:36.447Z,100143.59
2022-09-17T03:41:37.844Z,100143.69
2022-09-17T03:46:39.266Z,100148.44
2022-09-17T03:51:40.948Z,100153.88
2022-09-17T03:56:42.362Z,100158.88
2022-09-17T04:01:43.967Z,100158.75
2022-09-17T04:06:45.568Z,100173.78
2022-09-17T04:11:46.978Z,100184.88
2022-09-17T04:16:48.385Z,100182.72
2022-09-17T04:21:49.873Z,100179.94
2022-09-17T04:26:51.336Z,100189.94
2022-09-17T04:31:52.914Z,100184.84
2022-09-17T04:36:54.401Z,100185.00
2022-09-17T04:41:55.818Z,100182.00
2022-09-17T04:46:57.399Z,100203.63
2022-09-17T04:51:58.933Z,100193.38
2022-09-17T04:57:00.817Z,100193.72
2022-09-17T05:02:02.259Z,100197.00
2022-09-17T05:07:03.970Z,100205.34
2022-09-17T05:12:05.589Z,100204.72
2022-09-17T05:17:07.177Z,100212.16
2022-09-17T05:22:08.669Z,100217.56
2022-09-17T05:27:10.221Z,100221.03
2022-09-17T05:32:12.566Z,100225.25
2022-09-17T05:37:14.089Z,100231.63
2022-09-17T05:42:15.553Z,100232.00
2022-09-17T05:47:17.122Z,100240.31
2022-09-17T05:52:18.694Z,100248.09
2022-09-17T05:57:20.146Z,100245.56
2022-09-17T06:02:21.888Z,100254.59
2022-09-17T06:07:23.359Z,100248.72
2022-09-17T06:12:24.789Z,100253.44
2022-09-17T06:17:26.214Z,100256.53
2022-09-17T06:22:27.782Z,100252.97
2022-09-17T06:27:32.815Z,100264.06
2022-09-17T06:32:34.334Z,100258.16
2022-09-17T06:37:35.778Z,100260.00
2022-09-17T06:42:37.179Z,100260.72
2022-09-17T06:47:38.606Z,100269.00
2022-09-17T06:52:39.988Z,100265.22
2022-09-17T06:57:41.795Z,100275.59
2022-09-17T07:02:43.195Z,100273.38
2022-09-17T07:07:44.582Z,100263.38
2022-09-17T07:12:49.829Z,100263.38
2022-09-17T07:17:51.519Z,100274.47
2022-09-17T07:22:58.766Z,100273.28
2022-09-17T07:28:02.525Z,100286.78
2022-09-17T07:33:03.915Z,100278.56
2022-09-17T07:38:05.325Z,100270.50
2022-09-17T07:43:06.714Z,100268.25
2022-09-17T07:48:08.099Z,100272.91
2022-09-17T07:53:09.497Z,100271.25
2022-09-17T07:58:10.952Z,100270.75
2022-09-17T08:03:12.419Z,100266.91
2022-09-17T08:08:16.608Z,100270.28
2022-09-17T08:13:21.822Z,100275.09
2022-09-17T08:18:23.274Z,100275.91
2022-09-17T08:23:25.892Z,100280.13
2022-09-17T08:28:30.043Z,100271.59
2022-09-17T08:33:33.553Z,100270.41
2022-09-17T08:38:38.260Z,100261.03
2022-09-17T08:44:13.942Z,100254.94
2022-09-17T08:49:43.221Z,100271.28
2022-09-17T08:55:04.190Z,100282.78
2022-09-17T09:00:18.770Z,100275.94
2022-09-17T09:05:26.534Z,100277.44
2022-09-17T09:10:32.418Z,100292.41
2022-09-17T09:15:42.735Z,100292.56
2022-09-17T09:20:52.374Z,100301.59
2022-09-17T09:26:13.538Z,100308.03
2022-09-17T09:31:41.625Z,100311.38
2022-09-17T09:36:43.232Z,100309.72
2022-09-17T09:41:51.450Z,100320.16
2022-09-17T09:47:34.620Z,100310.75
2022-09-17T09:52:47.889Z,100306.41
2022-09-17T09:58:29.414Z,100302.56
2022-09-17T10:03:33.025Z,100314.38
2022-09-17T10:08:39.926Z,100308.06
2022-09-17T10:13:41.381Z,100283.59
2022-09-17T10:18:43.578Z,100290.31
2022-09-17T10:23:45.848Z,100285.91
2022-09-17T10:28:56.027Z,100279.28
2022-09-17T10:34:04.450Z,100290.38
2022-09-17T10:39:41.157Z,100292.22
2022-09-17T10:44:56.789Z,100292.38
2022-09-17T10:50:18.058Z,100283.72
2022-09-17T10:55:33.473Z,100298.25
2022-09-17T11:00:34.956Z,100293.06
2022-09-17T11:05:55.461Z,100272.06
2022-09-17T11:10:56.868Z,100263.91
2022-09-17T11:16:21.972Z,100255.41
2022-09-17T11:21:38.075Z,100248.34
2022-09-17T11:26:41.614Z,100242.72
2022-09-17T11:32:20.929Z,100230.34
2022-09-17T11:37:37.627Z,100238.53
2022-09-17T11:42:47.160Z,100229.38
2022-09-17T11:48:00.323Z,100213.09
2022-09-17T11:53:10.576Z,100218.72
2022-09-17T11:58:24.129Z,100222.84
2022-09-17T12:03:55.397Z,100218.50
2022-09-17T12:09:09.611Z,100224.19
2022-09-17T12:14:17.979Z,100232.09
2022-09-17T12:19:41.259Z,100238.09
2022-09-17T12:24:42.847Z,100235.31
2022-09-17T12:30:10.671Z,100257.47
2022-09-17T12:36:07.263Z,100260.63
2022-09-17T12:41:11.647Z,100237.78
2022-09-17T12:46:25.156Z,100237.47
2022-09-17T12:51:48.531Z,100243.63
2022-09-17T12:57:19.573Z,100258.28
2022-09-17T13:02:35.453Z,100265.94
2022-09-17T13:08:11.019Z,100234.94
2022-09-17T13:13:43.327Z,100243.63
2022-09-17T13:19:16.574Z,100224.66
2022-09-17T13:24:27.155Z,100222.66
2022-09-17T13:29:43.756Z,100219.84
2022-09-17T13:34:45.380Z,100218.50
2022-09-17T13:39:50.170Z,100221.81
2022-09-17T13:45:02.274Z,100223.47
2022-09-17T13:50:11.891Z,100224.34
2022-09-17T13:55:32.972Z,100228.97
2022-09-17T14:01:00.192Z,100235.28
2022-09-17T14:06:21.875Z,100260.13
2022-09-17T14:11:23.199Z,100268.75
2022-09-17T14:16:30.752Z,100263.06
2022-09-17T14:21:33.809Z,100242.28
2022-09-17T14:26:58.537Z,100253.59
2022-09-17T14:32:00.009Z,100264.75
2022-09-17T14:37:02.143Z,100262.25
2022-09-17T14:42:09.785Z,100270.53
2022-09-17T14:47:16.847Z,100274.28
2022-09-17T14:52:26.312Z,100271.41
2022-09-17T14:57:29.297Z,100266.91
2022-09-17T15:02:42.248Z,100261.59
2022-09-17T15:07:45.249Z,100256.28
2022-09-17T15:12:48.904Z,100263.78
2022-09-17T15:17:51.565Z,100271.63
2022-09-17T15:23:19.172Z,100270.56
2022-09-17T15:28:29.678Z,100279.09
2022-09-17T15:33:33.083Z,100281.09
2022-09-17T15:38:34.759Z,100281.03
2022-09-17T15:43:38.712Z,100263.91
2022-09-17T15:48:40.226Z,100257.56
2022-09-17T15:53:51.807Z,100253.91
2022-09-17T15:58:57.510Z,100246.28
2022-09-17T16:03:58.837Z,100239.94
2022-09-17T16:09:01.396Z,100244.09
2022-09-17T16:14:02.912Z,100252.34
2022-09-17T16:19:05.625Z,100254.78
2022-09-17T16:24:07.125Z,100256.66
2022-09-17T16:29:14.323Z,100254.34
2022-09-17T16:34:15.702Z,100258.81
2022-09-17T16:39:17.282Z,100264.97
2022-09-17T16:44:18.754Z,100276.78
2022-09-17T16:49:20.320Z,100283.22
2022-09-17T16:54:21.756Z,100303.13
2022-09-17T16:59:23.331Z,100315.78
2022-09-17T17:04:24.897Z,100354.81
2022-09-17T17:09:26.409Z,100369.28
2022-09-17T17:14:27.877Z,100386.06
2022-09-17T17:19:29.450Z,100390.16
2022-09-17T17:24:30.889Z,100390.97
2022-09-17T17:29:32.338Z,100372.53
2022-09-17T17:34:33.737Z,100350.50
2022-09-17T17:39:35.259Z,100344.00
2022-09-17T17:44:36.783Z,100342.38
2022-09-17T17:49:38.361Z,100345.13
2022-09-17T17:54:39.835Z,100351.69
2022-09-17T17:59:41.256Z,100356.94
2022-09-17T18:04:42.744Z,100370.13
2022-09-17T18:09:47.177Z,100365.56
2022-09-17T18:14:48.597Z,100377.31
2022-09-17T18:19:49.970Z,100391.53
2022-09-17T18:24:51.440Z,100384.53
2022-09-17T18:29:52.878Z,100388.22
2022-09-17T18:34:54.414Z,100391.97
2022-09-17T18:39:58.860Z,100390.53
2022-09-17T18:45:00.835Z,100404.28
2022-09-17T18:50:02.412Z,100404.06
2022-09-17T18:55:04.111Z,100413.66
2022-09-17T19:00:06.190Z,100415.41
2022-09-17T19:05:08.211Z,100435.88
2022-09-17T19:10:09.937Z,100421.16
2022-09-17T19:15:11.419Z,100423.81
2022-09-17T19:20:12.815Z,100424.56
2022-09-17T19:25:14.417Z,100431.13
2022-09-17T19:30:15.890Z,100431.50
2022-09-17T19:35:17.794Z,100441.97
2022-09-17T19:40:20.145Z,100435.34
2022-09-17T19:45:22.688Z,100434.91
2022-09-17T19:50:24.115Z,100446.56
2022-09-17T19:55:25.574Z,100442.31
2022-09-17T20:00:27.122Z,100442.38
2022-09-17T20:05:29.063Z,100445.22
2022-09-17T20:10:30.939Z,100445.56
2022-09-17T20:15:36.228Z,100440.53
2022-09-17T20:20:41.891Z,100434.66
2022-09-17T20:25:43.388Z,100433.31
2022-09-17T20:30:45.148Z,100424.84
2022-09-17T20:35:46.551Z,100431.34
2022-09-17T20:40:48.041Z,100431.19
2022-09-17T20:45:56.202Z,100432.41
2022-09-17T20:51:02.574Z,100432.47
2022-09-17T20:56:12.389Z,100437.44
2022-09-17T21:01:22.977Z,100428.44
2022-09-17T21:06:26.764Z,100426.47
2022-09-17T21:11:29.547Z,100432.72
2022-09-17T21:16:31.422Z,100433.56
2022-09-17T21:21:32.916Z,100435.00
2022-09-17T21:26:34.807Z,100433.28
2022-09-17T21:31:37.214Z,100443.56
2022-09-17T21:36:40.585Z,100438.84
2022-09-17T21:41:43.236Z,100441.59
2022-09-17T21:46:44.879Z,100437.53
2022-09-17T21:51:46.418Z,100443.84
2022-09-17T21:56:47.830Z,100444.47
2022-09-17T22:01:49.335Z,100454.34
2022-09-17T22:06:50.821Z,100455.72
2022-09-17T22:11:53.110Z,100452.75
2022-09-17T22:16:56.095Z,100463.75
2022-09-17T22:21:57.602Z,100460.78
2022-09-17T22:26:59.055Z,100452.63
2022-09-17T22:32:00.466Z,100451.19
2022-09-17T22:37:01.851Z,100450.88
2022-09-17T22:42:03.389Z,100443.97
2022-09-17T22:47:04.915Z,100448.75
2022-09-17T22:52:06.395Z,100455.78
2022-09-17T22:57:07.862Z,100450.38
2022-09-17T23:02:09.386Z,100440.97
2022-09-17T23:07:11.071Z,100447.13
2022-09-17T23:12:13.132Z,100447.75
2022-09-17T23:17:14.519Z,100441.38
2022-09-17T23:22:16.283Z,100445.84
2022-09-17T23:27:17.791Z,100444.19
2022-09-17T23:32:19.319Z,100457.69
2022-09-17T23:37:20.863Z,100439.69
2022-09-17T23:42:22.349Z,100442.84
2022-09-17T23:47:23.809Z,100444.78
2022-09-17T23:52:25.350Z,100447.06
2022-09-17T23:57:28.290Z,100437.25
